sensor_id;sensor_type;location;lat;lon;timestamp;pressure;altitude;pressure_sealevel;temperature;humidity
8501;BME280;4288;48.484;10.024;2023-01-26T00:01:53;96017.56;;;-0.82;nan
8501;BME280;4288;48.484;10.024;2023-01-26T00:04:22;96017.28;;;-0.80;nan
8501;BME280;4288;48.484;10.024;2023-01-26T00:06:49;96012.13;;;-0.85;nan
8501;BME280;4288;48.484;10.024;2023-01-26T00:09:16;96022.53;;;-0.80;nan
8501;BME280;4288;48.484;10.024;2023-01-26T00:11:43;96013.09;;;-0.81;nan
8501;BME280;4288;48.484;10.024;2023-01-26T00:14:10;96016.31;;;-0.84;nan
8501;BME280;4288;48.484;10.024;2023-01-26T00:16:38;96012.34;;;-0.82;nan
8501;BME280;4288;48.484;10.024;2023-01-26T00:19:05;96011.38;;;-0.86;nan
8501;BME280;4288;48.484;10.024;2023-01-26T00:21:34;96016.63;;;-0.86;nan
8501;BME280;4288;48.484;10.024;2023-01-26T00:24:01;96011.38;;;-0.86;nan
8501;BME280;4288;48.484;10.024;2023-01-26T00:26:29;96024.97;;;-0.84;nan
8501;BME280;4288;48.484;10.024;2023-01-26T00:28:56;96008.44;;;-0.84;nan
8501;BME280;4288;48.484;10.024;2023-01-26T00:31:26;95995.72;;;-0.91;nan
8501;BME280;4288;48.484;10.024;2023-01-26T00:33:55;95997.97;;;-0.98;nan
8501;BME280;4288;48.484;10.024;2023-01-26T00:36:23;95995.25;;;-1.07;nan
8501;BME280;4288;48.484;10.024;2023-01-26T00:38:51;95997.09;;;-1.07;nan
8501;BME280;4288;48.484;10.024;2023-01-26T00:41:18;96000.81;;;-1.22;nan
8501;BME280;4288;48.484;10.024;2023-01-26T00:44:03;95993.91;;;-1.18;nan
8501;BME280;4288;48.484;10.024;2023-01-26T00:46:30;95986.34;;;-1.06;nan
8501;BME280;4288;48.484;10.024;2023-01-26T00:48:57;95989.19;;;-0.94;nan
8501;BME280;4288;48.484;10.024;2023-01-26T00:51:25;95985.22;;;-0.91;nan
8501;BME280;4288;48.484;10.024;2023-01-26T00:53:54;95986.66;;;-0.85;nan
8501;BME280;4288;48.484;10.024;2023-01-26T00:56:21;95983.38;;;-0.91;nan
8501;BME280;4288;48.484;10.024;2023-01-26T00:58:48;95980.47;;;-0.89;nan
8501;BME280;4288;48.484;10.024;2023-01-26T01:01:15;95972.53;;;-0.98;nan
8501;BME280;4288;48.484;10.024;2023-01-26T01:03:42;95968.34;;;-0.99;nan
8501;BME280;4288;48.484;10.024;2023-01-26T01:06:09;95969.19;;;-0.90;nan
8501;BME280;4288;48.484;10.024;2023-01-26T01:08:36;95961.75;;;-0.96;nan
8501;BME280;4288;48.484;10.024;2023-01-26T01:11:08;95958.50;;;-0.93;nan
8501;BME280;4288;48.484;10.024;2023-01-26T01:13:36;95961.41;;;-0.81;nan
8501;BME280;4288;48.484;10.024;2023-01-26T01:16:05;95961.22;;;-0.84;nan
8501;BME280;4288;48.484;10.024;2023-01-26T01:18:32;95965.81;;;-0.90;nan
8501;BME280;4288;48.484;10.024;2023-01-26T01:20:59;95957.72;;;-0.94;nan
8501;BME280;4288;48.484;10.024;2023-01-26T01:23:27;95950.38;;;-1.05;nan
8501;BME280;4288;48.484;10.024;2023-01-26T01:25:58;95952.59;;;-0.99;nan
8501;BME280;4288;48.484;10.024;2023-01-26T01:28:27;95950.59;;;-1.02;nan
8501;BME280;4288;48.484;10.024;2023-01-26T01:30:54;95947.53;;;-0.95;nan
8501;BME280;4288;48.484;10.024;2023-01-26T01:33:22;95946.00;;;-0.96;nan
8501;BME280;4288;48.484;10.024;2023-01-26T01:35:56;95948.97;;;-0.89;nan
8501;BME280;4288;48.484;10.024;2023-01-26T01:38:23;95943.25;;;-0.91;nan
8501;BME280;4288;48.484;10.024;2023-01-26T01:40:51;95936.47;;;-0.92;nan
8501;BME280;4288;48.484;10.024;2023-01-26T01:43:18;95935.41;;;-1.05;nan
8501;BME280;4288;48.484;10.024;2023-01-26T01:45:47;95928.63;;;-1.06;nan
8501;BME280;4288;48.484;10.024;2023-01-26T01:48:21;95929.38;;;-1.05;nan
8501;BME280;4288;48.484;10.024;2023-01-26T01:50:52;95927.84;;;-1.06;nan
8501;BME280;4288;48.484;10.024;2023-01-26T01:53:26;95925.59;;;-0.99;nan
8501;BME280;4288;48.484;10.024;2023-01-26T01:55:57;95928.44;;;-1.09;nan
8501;BME280;4288;48.484;10.024;2023-01-26T01:58:27;95932.78;;;-1.05;nan
8501;BME280;4288;48.484;10.024;2023-01-26T02:00:57;95922.59;;;-1.06;nan
8501;BME280;4288;48.484;10.024;2023-01-26T02:03:24;95916.75;;;-1.03;nan
8501;BME280;4288;48.484;10.024;2023-01-26T02:05:57;95916.72;;;-1.12;nan
8501;BME280;4288;48.484;10.024;2023-01-26T02:08:47;95905.44;;;-1.12;nan
8501;BME280;4288;48.484;10.024;2023-01-26T02:11:18;95907.44;;;-1.09;nan
8501;BME280;4288;48.484;10.024;2023-01-26T02:13:47;95903.28;;;-1.10;nan
8501;BME280;4288;48.484;10.024;2023-01-26T02:16:16;95896.03;;;-1.13;nan
8501;BME280;4288;48.484;10.024;2023-01-26T02:18:45;95892.50;;;-1.09;nan
8501;BME280;4288;48.484;10.024;2023-01-26T02:21:16;95894.06;;;-1.08;nan
8501;BME280;4288;48.484;10.024;2023-01-26T02:24:01;95888.63;;;-1.11;nan
8501;BME280;4288;48.484;10.024;2023-01-26T02:26:34;95891.00;;;-1.23;nan
8501;BME280;4288;48.484;10.024;2023-01-26T02:29:05;95885.63;;;-1.18;nan
8501;BME280;4288;48.484;10.024;2023-01-26T02:31:34;95887.28;;;-1.22;nan
8501;BME280;4288;48.484;10.024;2023-01-26T02:34:02;95884.75;;;-1.14;nan
8501;BME280;4288;48.484;10.024;2023-01-26T02:36:32;95880.09;;;-1.17;nan
8501;BME280;4288;48.484;10.024;2023-01-26T02:39:16;95879.91;;;-1.20;nan
8501;BME280;4288;48.484;10.024;2023-01-26T02:41:49;95876.59;;;-1.12;nan
8501;BME280;4288;48.484;10.024;2023-01-26T02:44:35;95879.22;;;-1.12;nan
8501;BME280;4288;48.484;10.024;2023-01-26T02:47:11;95878.56;;;-1.18;nan
8501;BME280;4288;48.484;10.024;2023-01-26T02:49:38;95879.09;;;-1.07;nan
8501;BME280;4288;48.484;10.024;2023-01-26T02:52:17;95871.47;;;-1.17;nan
8501;BME280;4288;48.484;10.024;2023-01-26T02:54:45;95864.19;;;-1.20;nan
8501;BME280;4288;48.484;10.024;2023-01-26T02:57:31;95865.31;;;-1.13;nan
8501;BME280;4288;48.484;10.024;2023-01-26T02:59:59;95860.50;;;-1.19;nan
8501;BME280;4288;48.484;10.024;2023-01-26T03:02:27;95865.16;;;-1.16;nan
8501;BME280;4288;48.484;10.024;2023-01-26T03:04:54;95868.06;;;-1.18;nan
8501;BME280;4288;48.484;10.024;2023-01-26T03:07:21;95864.34;;;-1.17;nan
8501;BME280;4288;48.484;10.024;2023-01-26T03:09:48;95860.97;;;-1.17;nan
8501;BME280;4288;48.484;10.024;2023-01-26T03:12:15;95857.75;;;-1.14;nan
8501;BME280;4288;48.484;10.024;2023-01-26T03:14:43;95855.25;;;-1.19;nan
8501;BME280;4288;48.484;10.024;2023-01-26T03:17:10;95850.72;;;-1.27;nan
8501;BME280;4288;48.484;10.024;2023-01-26T03:19:37;95848.69;;;-1.30;nan
8501;BME280;4288;48.484;10.024;2023-01-26T03:22:22;95848.44;;;-1.20;nan
8501;BME280;4288;48.484;10.024;2023-01-26T03:25:08;95847.97;;;-1.22;nan
8501;BME280;4288;48.484;10.024;2023-01-26T03:27:53;95862.03;;;-1.18;nan
8501;BME280;4288;48.484;10.024;2023-01-26T03:30:21;95851.84;;;-1.20;nan
8501;BME280;4288;48.484;10.024;2023-01-26T03:32:48;95854.34;;;-1.15;nan
8501;BME280;4288;48.484;10.024;2023-01-26T03:35:16;95845.81;;;-1.20;nan
8501;BME280;4288;48.484;10.024;2023-01-26T03:37:47;95846.91;;;-1.21;nan
8501;BME280;4288;48.484;10.024;2023-01-26T03:40:19;95841.78;;;-1.26;nan
8501;BME280;4288;48.484;10.024;2023-01-26T03:43:07;95848.28;;;-1.24;nan
8501;BME280;4288;48.484;10.024;2023-01-26T03:45:53;95849.53;;;-1.21;nan
8501;BME280;4288;48.484;10.024;2023-01-26T03:48:38;95842.63;;;-1.17;nan
8501;BME280;4288;48.484;10.024;2023-01-26T03:51:22;95837.00;;;-1.24;nan
8501;BME280;4288;48.484;10.024;2023-01-26T03:54:07;95843.50;;;-1.22;nan
8501;BME280;4288;48.484;10.024;2023-01-26T03:56:52;95834.94;;;-1.14;nan
8501;BME280;4288;48.484;10.024;2023-01-26T03:59:19;95838.44;;;-1.18;nan
8501;BME280;4288;48.484;10.024;2023-01-26T04:02:04;95826.81;;;-1.26;nan
8501;BME280;4288;48.484;10.024;2023-01-26T04:04:49;95841.53;;;-1.16;nan
8501;BME280;4288;48.484;10.024;2023-01-26T04:07:34;95840.28;;;-1.19;nan
8501;BME280;4288;48.484;10.024;2023-01-26T04:10:19;95833.97;;;-1.18;nan
8501;BME280;4288;48.484;10.024;2023-01-26T04:12:46;95825.81;;;-1.16;nan
8501;BME280;4288;48.484;10.024;2023-01-26T04:15:31;95836.47;;;-1.13;nan
8501;BME280;4288;48.484;10.024;2023-01-26T04:18:17;95833.53;;;-1.11;nan
8501;BME280;4288;48.484;10.024;2023-01-26T04:21:02;95823.44;;;-1.04;nan
8501;BME280;4288;48.484;10.024;2023-01-26T04:23:47;95829.69;;;-1.14;nan
8501;BME280;4288;48.484;10.024;2023-01-26T04:26:14;95828.59;;;-1.13;nan
8501;BME280;4288;48.484;10.024;2023-01-26T04:28:41;95832.00;;;-1.12;nan
8501;BME280;4288;48.484;10.024;2023-01-26T04:31:09;95821.44;;;-1.21;nan
8501;BME280;4288;48.484;10.024;2023-01-26T04:33:37;95822.13;;;-1.15;nan
8501;BME280;4288;48.484;10.024;2023-01-26T04:36:06;95820.75;;;-1.13;nan
8501;BME280;4288;48.484;10.024;2023-01-26T04:38:33;95820.16;;;-1.10;nan
8501;BME280;4288;48.484;10.024;2023-01-26T04:41:00;95819.88;;;-1.08;nan
8501;BME280;4288;48.484;10.024;2023-01-26T04:43:28;95824.44;;;-1.14;nan
8501;BME280;4288;48.484;10.024;2023-01-26T04:45:59;95820.91;;;-1.09;nan
8501;BME280;4288;48.484;10.024;2023-01-26T04:48:27;95817.53;;;-1.10;nan
8501;BME280;4288;48.484;10.024;2023-01-26T04:50:58;95812.47;;;-1.06;nan
8501;BME280;4288;48.484;10.024;2023-01-26T04:53:26;95808.13;;;-1.11;nan
8501;BME280;4288;48.484;10.024;2023-01-26T04:55:54;95810.81;;;-1.02;nan
8501;BME280;4288;48.484;10.024;2023-01-26T04:58:21;95811.50;;;-1.10;nan
8501;BME280;4288;48.484;10.024;2023-01-26T05:00:52;95805.19;;;-1.09;nan
8501;BME280;4288;48.484;10.024;2023-01-26T05:03:20;95809.25;;;-1.03;nan
8501;BME280;4288;48.484;10.024;2023-01-26T05:05:48;95807.22;;;-1.06;nan
8501;BME280;4288;48.484;10.024;2023-01-26T05:08:18;95805.09;;;-1.04;nan
8501;BME280;4288;48.484;10.024;2023-01-26T05:10:46;95802.47;;;-1.04;nan
8501;BME280;4288;48.484;10.024;2023-01-26T05:13:13;95805.38;;;-1.06;nan
8501;BME280;4288;48.484;10.024;2023-01-26T05:15:40;95806.44;;;-1.07;nan
8501;BME280;4288;48.484;10.024;2023-01-26T05:18:08;95809.53;;;-1.05;nan
8501;BME280;4288;48.484;10.024;2023-01-26T05:20:36;95811.22;;;-1.09;nan
8501;BME280;4288;48.484;10.024;2023-01-26T05:23:03;95816.81;;;-1.02;nan
8501;BME280;4288;48.484;10.024;2023-01-26T05:25:31;95817.31;;;-1.00;nan
8501;BME280;4288;48.484;10.024;2023-01-26T05:27:58;95820.81;;;-1.04;nan
8501;BME280;4288;48.484;10.024;2023-01-26T05:30:25;95811.44;;;-1.19;nan
8501;BME280;4288;48.484;10.024;2023-01-26T05:32:53;95811.66;;;-1.15;nan
8501;BME280;4288;48.484;10.024;2023-01-26T05:35:20;95813.34;;;-1.11;nan
8501;BME280;4288;48.484;10.024;2023-01-26T05:37:47;95817.47;;;-1.18;nan
8501;BME280;4288;48.484;10.024;2023-01-26T05:40:14;95815.19;;;-1.11;nan
8501;BME280;4288;48.484;10.024;2023-01-26T05:42:43;95818.56;;;-1.19;nan
8501;BME280;4288;48.484;10.024;2023-01-26T05:45:11;95821.75;;;-1.22;nan
8501;BME280;4288;48.484;10.024;2023-01-26T05:47:38;95818.91;;;-1.12;nan
8501;BME280;4288;48.484;10.024;2023-01-26T05:50:06;95819.31;;;-1.19;nan
8501;BME280;4288;48.484;10.024;2023-01-26T05:52:33;95830.94;;;-1.11;nan
8501;BME280;4288;48.484;10.024;2023-01-26T05:55:00;95834.63;;;-1.12;nan
8501;BME280;4288;48.484;10.024;2023-01-26T05:57:27;95831.06;;;-1.16;nan
8501;BME280;4288;48.484;10.024;2023-01-26T05:59:56;95834.94;;;-1.14;nan
8501;BME280;4288;48.484;10.024;2023-01-26T06:02:23;95841.84;;;-1.18;nan
8501;BME280;4288;48.484;10.024;2023-01-26T06:04:51;95838.63;;;-1.37;nan
8501;BME280;4288;48.484;10.024;2023-01-26T06:07:19;95837.19;;;-1.21;nan
8501;BME280;4288;48.484;10.024;2023-01-26T06:09:46;95833.97;;;-1.18;nan
8501;BME280;4288;48.484;10.024;2023-01-26T06:12:15;95841.91;;;-1.09;nan
8501;BME280;4288;48.484;10.024;2023-01-26T06:14:43;95843.94;;;-1.06;nan
8501;BME280;4288;48.484;10.024;2023-01-26T06:17:12;95842.50;;;-1.12;nan
8501;BME280;4288;48.484;10.024;2023-01-26T06:19:40;95838.78;;;-1.11;nan
8501;BME280;4288;48.484;10.024;2023-01-26T06:22:07;95844.66;;;-1.14;nan
8501;BME280;4288;48.484;10.024;2023-01-26T06:24:35;95840.59;;;-1.20;nan
8501;BME280;4288;48.484;10.024;2023-01-26T06:27:02;95843.94;;;-1.06;nan
8501;BME280;4288;48.484;10.024;2023-01-26T06:29:31;95842.84;;;-1.05;nan
8501;BME280;4288;48.484;10.024;2023-01-26T06:31:58;95841.50;;;-1.03;nan
8501;BME280;4288;48.484;10.024;2023-01-26T06:34:27;95833.84;;;-1.13;nan
8501;BME280;4288;48.484;10.024;2023-01-26T06:36:54;95840.28;;;-1.19;nan
8501;BME280;4288;48.484;10.024;2023-01-26T06:39:21;95841.84;;;-1.18;nan
8501;BME280;4288;48.484;10.024;2023-01-26T06:41:48;95834.88;;;-1.22;nan
8501;BME280;4288;48.484;10.024;2023-01-26T06:44:15;95837.97;;;-1.20;nan
8501;BME280;4288;48.484;10.024;2023-01-26T06:46:42;95837.50;;;-1.22;nan
8501;BME280;4288;48.484;10.024;2023-01-26T06:49:09;95834.56;;;-1.21;nan
8501;BME280;4288;48.484;10.024;2023-01-26T06:51:56;95841.38;;;-1.20;nan
8501;BME280;4288;48.484;10.024;2023-01-26T06:54:24;95831.94;;;-1.21;nan
8501;BME280;4288;48.484;10.024;2023-01-26T06:56:51;95829.69;;;-1.14;nan
8501;BME280;4288;48.484;10.024;2023-01-26T06:59:18;95832.66;;;-1.07;nan
8501;BME280;4288;48.484;10.024;2023-01-26T07:01:46;95828.78;;;-1.09;nan
8501;BME280;4288;48.484;10.024;2023-01-26T07:04:15;95825.22;;;-1.13;nan
8501;BME280;4288;48.484;10.024;2023-01-26T07:06:43;95834.63;;;-1.12;nan
8501;BME280;4288;48.484;10.024;2023-01-26T07:09:11;95833.53;;;-1.11;nan
8501;BME280;4288;48.484;10.024;2023-01-26T07:11:38;95828.50;;;-1.08;nan
8501;BME280;4288;48.484;10.024;2023-01-26T07:14:06;95827.91;;;-1.05;nan
8501;BME280;4288;48.484;10.024;2023-01-26T07:16:33;95830.03;;;-1.07;nan
8501;BME280;4288;48.484;10.024;2023-01-26T07:19:00;95828.69;;;-1.04;nan
8501;BME280;4288;48.484;10.024;2023-01-26T07:21:27;95835.94;;;-1.01;nan
8501;BME280;4288;48.484;10.024;2023-01-26T07:23:55;95831.06;;;-0.94;nan
8501;BME280;4288;48.484;10.024;2023-01-26T07:26:24;95828.38;;;-1.03;nan
8501;BME280;4288;48.484;10.024;2023-01-26T07:28:51;95832.84;;;-1.03;nan
8501;BME280;4288;48.484;10.024;2023-01-26T07:31:18;95827.25;;;-1.10;nan
8501;BME280;4288;48.484;10.024;2023-01-26T07:33:45;95832.50;;;-1.10;nan
8501;BME280;4288;48.484;10.024;2023-01-26T07:36:12;95833.38;;;-1.15;nan
8501;BME280;4288;48.484;10.024;2023-01-26T07:38:39;95826.38;;;-1.06;nan
8501;BME280;4288;48.484;10.024;2023-01-26T07:41:08;95829.50;;;-0.95;nan
8501;BME280;4288;48.484;10.024;2023-01-26T07:43:38;95832.97;;;-1.08;nan
8501;BME280;4288;48.484;10.024;2023-01-26T07:46:06;95827.50;;;-0.98;nan
8501;BME280;4288;48.484;10.024;2023-01-26T07:48:35;95821.94;;;-0.97;nan
8501;BME280;4288;48.484;10.024;2023-01-26T07:51:03;95821.94;;;-0.97;nan
8501;BME280;4288;48.484;10.024;2023-01-26T07:53:31;95817.88;;;-1.03;nan
8501;BME280;4288;48.484;10.024;2023-01-26T07:56:09;95818.53;;;-0.97;nan
8501;BME280;4288;48.484;10.024;2023-01-26T07:58:38;95822.81;;;-1.01;nan
8501;BME280;4288;48.484;10.024;2023-01-26T08:01:08;95818.84;;;-0.99;nan
8501;BME280;4288;48.484;10.024;2023-01-26T08:03:36;95820.22;;;-1.01;nan
8501;BME280;4288;48.484;10.024;2023-01-26T08:06:04;95812.22;;;-0.96;nan
8501;BME280;4288;48.484;10.024;2023-01-26T08:08:32;95809.13;;;-0.98;nan
8501;BME280;4288;48.484;10.024;2023-01-26T08:11:00;95814.00;;;-1.05;nan
8501;BME280;4288;48.484;10.024;2023-01-26T08:13:29;95811.81;;;-1.12;nan
8501;BME280;4288;48.484;10.024;2023-01-26T08:16:02;95816.81;;;-1.02;nan
8501;BME280;4288;48.484;10.024;2023-01-26T08:18:29;95814.84;;;-0.96;nan
8501;BME280;4288;48.484;10.024;2023-01-26T08:20:57;95805.00;;;-0.91;nan
8501;BME280;4288;48.484;10.024;2023-01-26T08:23:25;95808.28;;;-0.85;nan
8501;BME280;4288;48.484;10.024;2023-01-26T08:25:52;95808.13;;;-0.88;nan
8501;BME280;4288;48.484;10.024;2023-01-26T08:28:20;95796.25;;;-0.86;nan
8501;BME280;4288;48.484;10.024;2023-01-26T08:30:47;95802.00;;;-0.75;nan
8501;BME280;4288;48.484;10.024;2023-01-26T08:33:15;95806.59;;;-0.81;nan
8501;BME280;4288;48.484;10.024;2023-01-26T08:35:43;95805.66;;;-0.85;nan
8501;BME280;4288;48.484;10.024;2023-01-26T08:38:10;95806.78;;;-0.77;nan
8501;BME280;4288;48.484;10.024;2023-01-26T08:40:37;95800.34;;;-0.71;nan
8501;BME280;4288;48.484;10.024;2023-01-26T08:43:04;95801.16;;;-0.62;nan
8501;BME280;4288;48.484;10.024;2023-01-26T08:45:31;95811.25;;;-0.78;nan
8501;BME280;4288;48.484;10.024;2023-01-26T08:47:58;95806.09;;;-0.61;nan
8501;BME280;4288;48.484;10.024;2023-01-26T08:50:27;95804.81;;;-0.72;nan
8501;BME280;4288;48.484;10.024;2023-01-26T08:52:57;95805.75;;;-0.68;nan
8501;BME280;4288;48.484;10.024;2023-01-26T08:55:24;95795.00;;;-0.58;nan
8501;BME280;4288;48.484;10.024;2023-01-26T08:57:53;95800.38;;;-0.63;nan
8501;BME280;4288;48.484;10.024;2023-01-26T09:00:22;95797.78;;;-0.54;nan
8501;BME280;4288;48.484;10.024;2023-01-26T09:02:50;95793.56;;;-0.64;nan
8501;BME280;4288;48.484;10.024;2023-01-26T09:05:17;95792.94;;;-0.69;nan
8501;BME280;4288;48.484;10.024;2023-01-26T09:07:45;95794.19;;;-0.67;nan
8501;BME280;4288;48.484;10.024;2023-01-26T09:10:12;95791.81;;;-0.46;nan
8501;BME280;4288;48.484;10.024;2023-01-26T09:12:39;95791.31;;;-0.57;nan
8501;BME280;4288;48.484;10.024;2023-01-26T09:15:08;95798.44;;;-0.49;nan
8501;BME280;4288;48.484;10.024;2023-01-26T09:17:35;95789.44;;;-0.56;nan
8501;BME280;4288;48.484;10.024;2023-01-26T09:20:03;95791.13;;;-0.60;nan
8501;BME280;4288;48.484;10.024;2023-01-26T09:22:30;95800.72;;;-0.56;nan
8501;BME280;4288;48.484;10.024;2023-01-26T09:24:59;95798.16;;;-0.47;nan
8501;BME280;4288;48.484;10.024;2023-01-26T09:27:26;95802.03;;;-0.36;nan
8501;BME280;4288;48.484;10.024;2023-01-26T09:29:53;95796.00;;;-0.45;nan
8501;BME280;4288;48.484;10.024;2023-01-26T09:32:21;95790.13;;;-0.42;nan
8501;BME280;4288;48.484;10.024;2023-01-26T09:34:48;95792.63;;;-0.37;nan
8501;BME280;4288;48.484;10.024;2023-01-26T09:37:15;95796.41;;;-0.52;nan
8501;BME280;4288;48.484;10.024;2023-01-26T09:39:43;95793.47;;;-0.59;nan
8501;BME280;4288;48.484;10.024;2023-01-26T09:45:20;95800.03;;;-0.39;nan
8501;BME280;4288;48.484;10.024;2023-01-26T09:48:08;95793.53;;;-0.42;nan
8501;BME280;4288;48.484;10.024;2023-01-26T09:50:41;95791.84;;;-0.38;nan
8501;BME280;4288;48.484;10.024;2023-01-26T09:53:17;95797.22;;;-0.43;nan
8501;BME280;4288;48.484;10.024;2023-01-26T09:55:47;95786.19;;;-0.62;nan
8501;BME280;4288;48.484;10.024;2023-01-26T09:58:24;95798.16;;;-0.47;nan
8501;BME280;4288;48.484;10.024;2023-01-26T10:00:59;95787.50;;;-0.42;nan
8501;BME280;4288;48.484;10.024;2023-01-26T10:03:32;95792.28;;;-0.44;nan
8501;BME280;4288;48.484;10.024;2023-01-26T10:06:12;95799.84;;;-0.43;nan
8501;BME280;4288;48.484;10.024;2023-01-26T10:08:41;95790.03;;;-0.29;nan
8501;BME280;4288;48.484;10.024;2023-01-26T10:11:15;95798.31;;;-0.44;nan
8501;BME280;4288;48.484;10.024;2023-01-26T10:13:52;95802.59;;;-0.09;nan
8501;BME280;4288;48.484;10.024;2023-01-26T10:16:21;95799.47;;;-0.19;nan
8501;BME280;4288;48.484;10.024;2023-01-26T10:18:54;95793.13;;;-0.27;nan
8501;BME280;4288;48.484;10.024;2023-01-26T10:21:27;95785.13;;;-0.22;nan
8501;BME280;4288;48.484;10.024;2023-01-26T10:23:59;95800.22;;;-0.27;nan
8501;BME280;4288;48.484;10.024;2023-01-26T10:26:31;95796.66;;;-0.31;nan
8501;BME280;4288;48.484;10.024;2023-01-26T10:29:00;95791.16;;;-0.52;nan
8501;BME280;4288;48.484;10.024;2023-01-26T10:31:29;95797.56;;;-0.36;nan
8501;BME280;4288;48.484;10.024;2023-01-26T10:34:00;95797.72;;;-0.32;nan
8501;BME280;4288;48.484;10.024;2023-01-26T10:36:30;95801.88;;;-0.40;nan
8501;BME280;4288;48.484;10.024;2023-01-26T10:39:04;95800.72;;;-0.56;nan
8501;BME280;4288;48.484;10.024;2023-01-26T10:41:31;95801.50;;;-0.55;nan
8501;BME280;4288;48.484;10.024;2023-01-26T10:44:02;95804.50;;;-0.40;nan
8501;BME280;4288;48.484;10.024;2023-01-26T10:46:33;95801.72;;;-0.35;nan
8501;BME280;4288;48.484;10.024;2023-01-26T10:49:02;95803.03;;;-0.24;nan
8501;BME280;4288;48.484;10.024;2023-01-26T10:51:32;95803.88;;;-0.37;nan
8501;BME280;4288;48.484;10.024;2023-01-26T10:54:26;95799.94;;;-0.26;nan
8501;BME280;4288;48.484;10.024;2023-01-26T10:56:56;95793.44;;;-0.28;nan
8501;BME280;4288;48.484;10.024;2023-01-26T10:59:30;95796.63;;;-0.40;nan
8501;BME280;4288;48.484;10.024;2023-01-26T11:02:01;95800.38;;;-0.32;nan
8501;BME280;4288;48.484;10.024;2023-01-26T11:04:29;95793.84;;;-0.43;nan
8501;BME280;4288;48.484;10.024;2023-01-26T11:07:23;95790.84;;;-0.50;nan
8501;BME280;4288;48.484;10.024;2023-01-26T11:09:51;95787.75;;;-0.52;nan
8501;BME280;4288;48.484;10.024;2023-01-26T11:12:20;95795.53;;;-0.47;nan
8501;BME280;4288;48.484;10.024;2023-01-26T11:15:01;95793.75;;;-0.60;nan
8501;BME280;4288;48.484;10.024;2023-01-26T11:17:36;95791.13;;;-0.60;nan
8501;BME280;4288;48.484;10.024;2023-01-26T11:20:46;95783.28;;;-0.52;nan
8501;BME280;4288;48.484;10.024;2023-01-26T11:23:23;95782.72;;;-0.49;nan
8501;BME280;4288;48.484;10.024;2023-01-26T11:26:29;95780.94;;;-0.62;nan
8501;BME280;4288;48.484;10.024;2023-01-26T11:29:17;95777.63;;;-0.76;nan
8501;BME280;4288;48.484;10.024;2023-01-26T11:31:58;95775.03;;;-0.67;nan
8501;BME280;4288;48.484;10.024;2023-01-26T11:34:38;95771.84;;;-0.64;nan
8501;BME280;4288;48.484;10.024;2023-01-26T11:37:40;95765.16;;;-0.70;nan
8501;BME280;4288;48.484;10.024;2023-01-26T11:40:25;95766.59;;;-0.64;nan
8501;BME280;4288;48.484;10.024;2023-01-26T11:43:12;95758.25;;;-0.66;nan
8501;BME280;4288;48.484;10.024;2023-01-26T11:46:24;95761.59;;;-0.74;nan
8501;BME280;4288;48.484;10.024;2023-01-26T11:49:07;95762.97;;;-0.77;nan
8501;BME280;4288;48.484;10.024;2023-01-26T11:51:54;95757.56;;;-0.72;nan
8501;BME280;4288;48.484;10.024;2023-01-26T11:54:36;95763.25;;;-0.48;nan
8501;BME280;4288;48.484;10.024;2023-01-26T11:57:16;95753.53;;;-0.39;nan
8501;BME280;4288;48.484;10.024;2023-01-26T11:59:52;95756.31;;;-0.44;nan
8501;BME280;4288;48.484;10.024;2023-01-26T12:02:28;95745.66;;;-0.47;nan
8501;BME280;4288;48.484;10.024;2023-01-26T12:05:02;95752.59;;;-0.43;nan
8501;BME280;4288;48.484;10.024;2023-01-26T12:07:45;95751.50;;;-0.50;nan
8501;BME280;4288;48.484;10.024;2023-01-26T12:10:23;95740.56;;;-0.44;nan
8501;BME280;4288;48.484;10.024;2023-01-26T12:12:57;95743.03;;;-0.39;nan
8501;BME280;4288;48.484;10.024;2023-01-26T12:15:30;95742.75;;;-0.37;nan
8501;BME280;4288;48.484;10.024;2023-01-26T12:18:04;95740.28;;;-0.34;nan
8501;BME280;4288;48.484;10.024;2023-01-26T12:20:38;95738.56;;;-0.38;nan
8501;BME280;4288;48.484;10.024;2023-01-26T12:23:12;95732.22;;;-0.46;nan
8501;BME280;4288;48.484;10.024;2023-01-26T12:25:45;95729.28;;;-0.44;nan
8501;BME280;4288;48.484;10.024;2023-01-26T12:28:19;95733.16;;;-0.42;nan
8501;BME280;4288;48.484;10.024;2023-01-26T12:30:59;95736.56;;;-0.33;nan
8501;BME280;4288;48.484;10.024;2023-01-26T12:33:31;95731.03;;;-0.23;nan
8501;BME280;4288;48.484;10.024;2023-01-26T12:36:38;95730.25;;;-0.32;nan
8501;BME280;4288;48.484;10.024;2023-01-26T12:39:12;95736.25;;;-0.31;nan
8501;BME280;4288;48.484;10.024;2023-01-26T12:42:02;95720.19;;;-0.38;nan
8501;BME280;4288;48.484;10.024;2023-01-26T12:44:38;95719.28;;;-0.34;nan
8501;BME280;4288;48.484;10.024;2023-01-26T12:47:13;95716.53;;;-0.20;nan
8501;BME280;4288;48.484;10.024;2023-01-26T12:49:48;95713.38;;;-0.48;nan
8501;BME280;4288;48.484;10.024;2023-01-26T12:52:22;95709.38;;;-0.37;nan
8501;BME280;4288;48.484;10.024;2023-01-26T12:54:58;95707.22;;;-0.43;nan
8501;BME280;4288;48.484;10.024;2023-01-26T12:57:33;95706.88;;;-0.50;nan
8501;BME280;4288;48.484;10.024;2023-01-26T13:00:06;95702.72;;;-0.43;nan
8501;BME280;4288;48.484;10.024;2023-01-26T13:02:46;95699.97;;;-0.38;nan
8501;BME280;4288;48.484;10.024;2023-01-26T13:05:27;95698.25;;;-0.51;nan
8501;BME280;4288;48.484;10.024;2023-01-26T13:07:57;95698.09;;;-0.46;nan
8501;BME280;4288;48.484;10.024;2023-01-26T13:10:48;95699.50;;;-0.40;nan
8501;BME280;4288;48.484;10.024;2023-01-26T13:13:30;95687.44;;;-0.41;nan
8501;BME280;4288;48.484;10.024;2023-01-26T13:16:32;95687.25;;;-0.61;nan
8501;BME280;4288;48.484;10.024;2023-01-26T13:19:00;95688.22;;;-0.49;nan
8501;BME280;4288;48.484;10.024;2023-01-26T13:21:40;95675.88;;;-0.40;nan
8501;BME280;4288;48.484;10.024;2023-01-26T13:24:43;95687.13;;;-0.48;nan
8501;BME280;4288;48.484;10.024;2023-01-26T13:27:33;95683.13;;;-0.45;nan
8501;BME280;4288;48.484;10.024;2023-01-26T13:30:41;95683.88;;;-0.53;nan
8501;BME280;4288;48.484;10.024;2023-01-26T13:33:15;95674.44;;;-0.63;nan
8501;BME280;4288;48.484;10.024;2023-01-26T13:35:46;95679.41;;;-0.53;nan
8501;BME280;4288;48.484;10.024;2023-01-26T13:38:19;95686.25;;;-0.74;nan
8501;BME280;4288;48.484;10.024;2023-01-26T13:40:49;95688.41;;;-0.76;nan
8501;BME280;4288;48.484;10.024;2023-01-26T13:43:25;95687.66;;;-0.68;nan
8501;BME280;4288;48.484;10.024;2023-01-26T13:46:11;95688.28;;;-0.71;nan
8501;BME280;4288;48.484;10.024;2023-01-26T13:48:44;95687.50;;;-0.71;nan
8501;BME280;4288;48.484;10.024;2023-01-26T13:51:15;95690.28;;;-0.76;nan
8501;BME280;4288;48.484;10.024;2023-01-26T13:53:56;95688.50;;;-0.90;nan
8501;BME280;4288;48.484;10.024;2023-01-26T13:56:29;95685.59;;;-0.88;nan
8501;BME280;4288;48.484;10.024;2023-01-26T13:59:09;95694.53;;;-0.89;nan
8501;BME280;4288;48.484;10.024;2023-01-26T14:01:45;95690.38;;;-0.90;nan
8501;BME280;4288;48.484;10.024;2023-01-26T14:04:16;95692.72;;;-0.80;nan